sensor_id;sensor_type;location;lat;lon;timestamp;P1;durP1;ratioP1;P2;durP2;ratioP2
78989;SDS011;68390;52.130;21.218;2023-05-10T00:01:45;17.73;;;10.05;;
78989;SDS011;68390;52.130;21.218;2023-05-10T00:04:11;15.93;;;8.25;;
78989;SDS011;68390;52.130;21.218;2023-05-10T00:06:36;15.35;;;9.02;;
78989;SDS011;68390;52.130;21.218;2023-05-10T00:09:02;15.53;;;8.77;;
78989;SDS011;68390;52.130;21.218;2023-05-10T00:11:28;14.95;;;7.55;;
78989;SDS011;68390;52.130;21.218;2023-05-10T00:13:53;15.50;;;8.65;;
78989;SDS011;68390;52.130;21.218;2023-05-10T00:16:19;11.95;;;7.57;;
78989;SDS011;68390;52.130;21.218;2023-05-10T00:18:44;13.93;;;7.30;;
78989;SDS011;68390;52.130;21.218;2023-05-10T00:21:10;13.95;;;7.88;;
78989;SDS011;68390;52.130;21.218;2023-05-10T00:23:35;12.68;;;6.85;;
78989;SDS011;68390;52.130;21.218;2023-05-10T00:26:01;14.77;;;8.43;;
78989;SDS011;68390;52.130;21.218;2023-05-10T00:28:27;14.55;;;7.43;;
78989;SDS011;68390;52.130;21.218;2023-05-10T00:30:53;15.00;;;8.38;;
78989;SDS011;68390;52.130;21.218;2023-05-10T00:33:19;12.77;;;7.25;;
78989;SDS011;68390;52.130;21.218;2023-05-10T00:35:44;15.23;;;6.95;;
78989;SDS011;68390;52.130;21.218;2023-05-10T00:38:09;15.73;;;8.47;;
78989;SDS011;68390;52.130;21.218;2023-05-10T00:40:35;12.90;;;7.80;;
78989;SDS011;68390;52.130;21.218;2023-05-10T00:43:01;10.38;;;7.18;;
78989;SDS011;68390;52.130;21.218;2023-05-10T00:45:28;10.02;;;5.97;;
78989;SDS011;68390;52.130;21.218;2023-05-10T00:47:55;11.93;;;6.10;;
78989;SDS011;68390;52.130;21.218;2023-05-10T00:50:21;12.88;;;7.28;;
78989;SDS011;68390;52.130;21.218;2023-05-10T00:52:48;10.43;;;5.50;;
78989;SDS011;68390;52.130;21.218;2023-05-10T00:55:14;10.50;;;6.00;;
78989;SDS011;68390;52.130;21.218;2023-05-10T00:57:40;10.50;;;6.13;;
78989;SDS011;68390;52.130;21.218;2023-05-10T01:00:06;7.43;;;4.57;;
78989;SDS011;68390;52.130;21.218;2023-05-10T01:02:33;9.27;;;5.38;;
78989;SDS011;68390;52.130;21.218;2023-05-10T01:04:59;13.57;;;6.22;;
78989;SDS011;68390;52.130;21.218;2023-05-10T01:07:28;9.05;;;5.43;;
78989;SDS011;68390;52.130;21.218;2023-05-10T01:09:54;10.38;;;5.55;;
78989;SDS011;68390;52.130;21.218;2023-05-10T01:12:19;10.20;;;4.82;;
78989;SDS011;68390;52.130;21.218;2023-05-10T01:14:45;9.38;;;4.82;;
78989;SDS011;68390;52.130;21.218;2023-05-10T01:17:11;10.90;;;5.47;;
78989;SDS011;68390;52.130;21.218;2023-05-10T01:19:37;9.25;;;5.20;;
78989;SDS011;68390;52.130;21.218;2023-05-10T01:23:04;10.57;;;4.95;;
78989;SDS011;68390;52.130;21.218;2023-05-10T01:33:18;8.32;;;4.35;;
78989;SDS011;68390;52.130;21.218;2023-05-10T01:35:51;6.82;;;4.13;;
78989;SDS011;68390;52.130;21.218;2023-05-10T01:43:57;7.55;;;4.60;;
78989;SDS011;68390;52.130;21.218;2023-05-10T01:46:33;8.93;;;4.38;;
78989;SDS011;68390;52.130;21.218;2023-05-10T01:49:02;6.50;;;4.22;;
78989;SDS011;68390;52.130;21.218;2023-05-10T01:51:33;7.75;;;4.90;;
78989;SDS011;68390;52.130;21.218;2023-05-10T01:54:04;6.70;;;4.20;;
78989;SDS011;68390;52.130;21.218;2023-05-10T01:56:32;8.68;;;4.75;;
78989;SDS011;68390;52.130;21.218;2023-05-10T01:58:59;7.07;;;4.40;;
78989;SDS011;68390;52.130;21.218;2023-05-10T02:01:31;8.65;;;4.60;;
78989;SDS011;68390;52.130;21.218;2023-05-10T02:03:58;9.20;;;4.63;;
78989;SDS011;68390;52.130;21.218;2023-05-10T02:06:24;8.25;;;4.65;;
78989;SDS011;68390;52.130;21.218;2023-05-10T02:08:52;7.82;;;4.40;;
78989;SDS011;68390;52.130;21.218;2023-05-10T02:11:18;8.75;;;4.20;;
78989;SDS011;68390;52.130;21.218;2023-05-10T02:13:46;6.35;;;3.88;;
78989;SDS011;68390;52.130;21.218;2023-05-10T02:16:14;9.60;;;5.00;;
78989;SDS011;68390;52.130;21.218;2023-05-10T02:18:42;7.65;;;4.22;;
78989;SDS011;68390;52.130;21.218;2023-05-10T02:21:08;12.15;;;5.38;;
78989;SDS011;68390;52.130;21.218;2023-05-10T02:23:35;8.50;;;4.47;;
78989;SDS011;68390;52.130;21.218;2023-05-10T02:26:02;8.63;;;4.43;;
78989;SDS011;68390;52.130;21.218;2023-05-10T02:28:30;7.50;;;3.75;;
78989;SDS011;68390;52.130;21.218;2023-05-10T02:30:57;8.35;;;4.43;;
78989;SDS011;68390;52.130;21.218;2023-05-10T02:33:23;7.13;;;4.60;;
78989;SDS011;68390;52.130;21.218;2023-05-10T02:35:50;6.90;;;4.60;;
78989;SDS011;68390;52.130;21.218;2023-05-10T02:38:16;7.38;;;4.13;;
78989;SDS011;68390;52.130;21.218;2023-05-10T02:40:44;9.50;;;4.63;;
78989;SDS011;68390;52.130;21.218;2023-05-10T02:43:12;7.75;;;4.47;;
78989;SDS011;68390;52.130;21.218;2023-05-10T02:45:39;6.63;;;3.88;;
78989;SDS011;68390;52.130;21.218;2023-05-10T02:48:06;10.15;;;4.82;;
78989;SDS011;68390;52.130;21.218;2023-05-10T02:50:32;7.95;;;4.38;;
78989;SDS011;68390;52.130;21.218;2023-05-10T02:53:04;6.32;;;4.10;;
78989;SDS011;68390;52.130;21.218;2023-05-10T02:55:36;9.48;;;4.68;;
78989;SDS011;68390;52.130;21.218;2023-05-10T02:58:05;8.30;;;4.85;;
78989;SDS011;68390;52.130;21.218;2023-05-10T03:00:31;5.97;;;3.75;;
78989;SDS011;68390;52.130;21.218;2023-05-10T03:02:56;9.20;;;4.90;;
78989;SDS011;68390;52.130;21.218;2023-05-10T03:05:22;9.65;;;4.25;;
78989;SDS011;68390;52.130;21.218;2023-05-10T03:07:48;7.82;;;4.72;;
78989;SDS011;68390;52.130;21.218;2023-05-10T03:10:13;8.07;;;4.70;;
78989;SDS011;68390;52.130;21.218;2023-05-10T03:15:42;8.13;;;4.25;;
78989;SDS011;68390;52.130;21.218;2023-05-10T03:18:44;6.72;;;4.38;;
78989;SDS011;68390;52.130;21.218;2023-05-10T03:21:16;10.25;;;4.82;;
78989;SDS011;68390;52.130;21.218;2023-05-10T03:26:40;10.25;;;5.45;;
78989;SDS011;68390;52.130;21.218;2023-05-10T03:29:09;13.73;;;5.45;;
78989;SDS011;68390;52.130;21.218;2023-05-10T03:31:37;9.65;;;5.35;;
78989;SDS011;68390;52.130;21.218;2023-05-10T03:34:03;12.25;;;4.80;;
78989;SDS011;68390;52.130;21.218;2023-05-10T03:36:28;7.45;;;4.35;;
78989;SDS011;68390;52.130;21.218;2023-05-10T03:38:54;8.20;;;4.85;;
78989;SDS011;68390;52.130;21.218;2023-05-10T03:41:19;8.27;;;4.50;;
78989;SDS011;68390;52.130;21.218;2023-05-10T03:43:45;7.28;;;3.72;;
78989;SDS011;68390;52.130;21.218;2023-05-10T03:46:11;9.90;;;6.00;;
78989;SDS011;68390;52.130;21.218;2023-05-10T03:48:36;16.85;;;5.32;;
78989;SDS011;68390;52.130;21.218;2023-05-10T03:51:01;12.95;;;5.88;;
78989;SDS011;68390;52.130;21.218;2023-05-10T03:53:27;8.55;;;4.97;;
78989;SDS011;68390;52.130;21.218;2023-05-10T03:55:52;12.07;;;4.95;;
78989;SDS011;68390;52.130;21.218;2023-05-10T03:58:18;9.60;;;5.30;;
78989;SDS011;68390;52.130;21.218;2023-05-10T04:00:44;14.38;;;5.47;;
78989;SDS011;68390;52.130;21.218;2023-05-10T04:03:10;7.07;;;4.50;;
78989;SDS011;68390;52.130;21.218;2023-05-10T04:05:36;10.55;;;5.28;;
78989;SDS011;68390;52.130;21.218;2023-05-10T04:08:02;9.82;;;4.75;;
78989;SDS011;68390;52.130;21.218;2023-05-10T04:10:28;5.43;;;4.32;;
78989;SDS011;68390;52.130;21.218;2023-05-10T04:12:53;9.77;;;5.07;;
78989;SDS011;68390;52.130;21.218;2023-05-10T04:15:19;9.35;;;4.90;;
78989;SDS011;68390;52.130;21.218;2023-05-10T04:17:45;8.63;;;5.00;;
78989;SDS011;68390;52.130;21.218;2023-05-10T04:20:11;12.05;;;5.10;;
78989;SDS011;68390;52.130;21.218;2023-05-10T04:22:37;10.20;;;4.32;;
78989;SDS011;68390;52.130;21.218;2023-05-10T04:25:02;10.57;;;4.47;;
78989;SDS011;68390;52.130;21.218;2023-05-10T04:27:28;9.00;;;4.63;;
78989;SDS011;68390;52.130;21.218;2023-05-10T04:29:53;9.03;;;4.80;;
78989;SDS011;68390;52.130;21.218;2023-05-10T04:32:19;7.75;;;4.65;;
78989;SDS011;68390;52.130;21.218;2023-05-10T04:34:45;8.25;;;4.57;;
78989;SDS011;68390;52.130;21.218;2023-05-10T04:37:10;7.45;;;4.47;;
78989;SDS011;68390;52.130;21.218;2023-05-10T04:39:36;9.88;;;4.80;;
78989;SDS011;68390;52.130;21.218;2023-05-10T04:42:02;7.90;;;4.82;;
78989;SDS011;68390;52.130;21.218;2023-05-10T04:44:28;8.90;;;4.05;;
78989;SDS011;68390;52.130;21.218;2023-05-10T04:46:54;7.15;;;4.82;;
78989;SDS011;68390;52.130;21.218;2023-05-10T04:49:20;8.80;;;4.80;;
78989;SDS011;68390;52.130;21.218;2023-05-10T04:51:45;6.82;;;4.03;;
78989;SDS011;68390;52.130;21.218;2023-05-10T04:54:11;9.25;;;4.72;;
78989;SDS011;68390;52.130;21.218;2023-05-10T04:56:37;7.90;;;4.60;;
78989;SDS011;68390;52.130;21.218;2023-05-10T04:59:02;7.47;;;4.70;;
78989;SDS011;68390;52.130;21.218;2023-05-10T05:01:28;8.23;;;4.47;;
78989;SDS011;68390;52.130;21.218;2023-05-10T05:03:53;8.00;;;4.07;;
78989;SDS011;68390;52.130;21.218;2023-05-10T05:06:19;8.13;;;4.30;;
78989;SDS011;68390;52.130;21.218;2023-05-10T05:08:45;8.90;;;4.03;;
78989;SDS011;68390;52.130;21.218;2023-05-10T05:11:11;9.77;;;4.85;;
78989;SDS011;68390;52.130;21.218;2023-05-10T05:13:36;10.10;;;4.53;;
78989;SDS011;68390;52.130;21.218;2023-05-10T05:16:02;7.75;;;4.35;;
78989;SDS011;68390;52.130;21.218;2023-05-10T05:18:28;8.02;;;4.85;;
78989;SDS011;68390;52.130;21.218;2023-05-10T05:20:53;7.35;;;4.18;;
78989;SDS011;68390;52.130;21.218;2023-05-10T05:23:19;6.50;;;4.10;;
78989;SDS011;68390;52.130;21.218;2023-05-10T05:25:45;7.35;;;4.55;;
78989;SDS011;68390;52.130;21.218;2023-05-10T05:28:11;8.52;;;4.32;;
78989;SDS011;68390;52.130;21.218;2023-05-10T05:30:37;6.43;;;3.90;;
78989;SDS011;68390;52.130;21.218;2023-05-10T05:33:02;9.02;;;4.43;;
78989;SDS011;68390;52.130;21.218;2023-05-10T05:35:28;10.02;;;4.35;;
78989;SDS011;68390;52.130;21.218;2023-05-10T05:37:53;6.47;;;3.97;;
78989;SDS011;68390;52.130;21.218;2023-05-10T05:40:19;7.40;;;3.80;;
78989;SDS011;68390;52.130;21.218;2023-05-10T05:42:45;11.80;;;4.40;;
78989;SDS011;68390;52.130;21.218;2023-05-10T05:45:10;8.38;;;4.20;;
78989;SDS011;68390;52.130;21.218;2023-05-10T05:47:38;8.90;;;3.78;;
78989;SDS011;68390;52.130;21.218;2023-05-10T05:50:04;10.05;;;3.70;;
78989;SDS011;68390;52.130;21.218;2023-05-10T05:52:29;9.52;;;4.10;;
78989;SDS011;68390;52.130;21.218;2023-05-10T05:54:55;8.23;;;3.92;;
78989;SDS011;68390;52.130;21.218;2023-05-10T05:57:20;6.03;;;3.57;;
78989;SDS011;68390;52.130;21.218;2023-05-10T05:59:46;6.43;;;3.50;;
78989;SDS011;68390;52.130;21.218;2023-05-10T06:02:12;6.85;;;3.50;;
78989;SDS011;68390;52.130;21.218;2023-05-10T06:04:38;10.90;;;4.05;;
78989;SDS011;68390;52.130;21.218;2023-05-10T06:07:03;6.25;;;3.55;;
78989;SDS011;68390;52.130;21.218;2023-05-10T06:09:29;5.53;;;3.25;;
78989;SDS011;68390;52.130;21.218;2023-05-10T06:11:54;5.45;;;3.30;;
78989;SDS011;68390;52.130;21.218;2023-05-10T06:14:20;6.15;;;3.40;;
78989;SDS011;68390;52.130;21.218;2023-05-10T06:16:45;10.75;;;3.70;;
78989;SDS011;68390;52.130;21.218;2023-05-10T06:19:11;6.45;;;3.60;;
78989;SDS011;68390;52.130;21.218;2023-05-10T06:21:37;7.70;;;3.90;;
78989;SDS011;68390;52.130;21.218;2023-05-10T06:24:02;5.45;;;3.40;;
78989;SDS011;68390;52.130;21.218;2023-05-10T06:26:28;10.20;;;3.15;;
78989;SDS011;68390;52.130;21.218;2023-05-10T06:28:54;5.60;;;3.13;;
78989;SDS011;68390;52.130;21.218;2023-05-10T06:31:19;5.88;;;3.13;;
78989;SDS011;68390;52.130;21.218;2023-05-10T06:33:45;6.68;;;3.08;;
78989;SDS011;68390;52.130;21.218;2023-05-10T06:36:10;8.48;;;3.42;;
78989;SDS011;68390;52.130;21.218;2023-05-10T06:38:36;4.57;;;3.10;;
78989;SDS011;68390;52.130;21.218;2023-05-10T06:41:01;9.32;;;3.05;;
78989;SDS011;68390;52.130;21.218;2023-05-10T06:43:26;4.82;;;2.65;;
78989;SDS011;68390;52.130;21.218;2023-05-10T06:45:53;6.90;;;3.47;;
78989;SDS011;68390;52.130;21.218;2023-05-10T06:48:19;6.13;;;2.90;;
78989;SDS011;68390;52.130;21.218;2023-05-10T06:50:44;7.75;;;3.15;;
78989;SDS011;68390;52.130;21.218;2023-05-10T06:53:10;7.85;;;3.00;;
78989;SDS011;68390;52.130;21.218;2023-05-10T06:55:36;6.18;;;3.03;;
78989;SDS011;68390;52.130;21.218;2023-05-10T06:58:02;5.75;;;3.53;;
78989;SDS011;68390;52.130;21.218;2023-05-10T07:00:27;8.25;;;3.45;;
78989;SDS011;68390;52.130;21.218;2023-05-10T07:02:52;6.93;;;3.00;;
78989;SDS011;68390;52.130;21.218;2023-05-10T07:05:18;6.35;;;2.97;;
78989;SDS011;68390;52.130;21.218;2023-05-10T07:07:44;5.93;;;2.78;;
78989;SDS011;68390;52.130;21.218;2023-05-10T07:10:10;6.63;;;2.92;;
78989;SDS011;68390;52.130;21.218;2023-05-10T07:12:35;10.82;;;2.83;;
78989;SDS011;68390;52.130;21.218;2023-05-10T07:15:01;4.88;;;2.67;;
78989;SDS011;68390;52.130;21.218;2023-05-10T07:17:26;4.25;;;2.90;;
78989;SDS011;68390;52.130;21.218;2023-05-10T07:19:52;5.60;;;3.10;;
78989;SDS011;68390;52.130;21.218;2023-05-10T07:22:17;4.45;;;2.70;;
78989;SDS011;68390;52.130;21.218;2023-05-10T07:24:43;4.63;;;2.60;;
78989;SDS011;68390;52.130;21.218;2023-05-10T07:27:09;8.30;;;3.05;;
78989;SDS011;68390;52.130;21.218;2023-05-10T07:29:35;5.63;;;2.55;;
78989;SDS011;68390;52.130;21.218;2023-05-10T07:32:01;4.47;;;3.00;;
78989;SDS011;68390;52.130;21.218;2023-05-10T07:34:26;9.13;;;2.90;;
78989;SDS011;68390;52.130;21.218;2023-05-10T07:36:53;9.80;;;4.22;;
78989;SDS011;68390;52.130;21.218;2023-05-10T07:39:19;4.15;;;2.83;;
78989;SDS011;68390;52.130;21.218;2023-05-10T07:41:45;6.05;;;2.80;;
78989;SDS011;68390;52.130;21.218;2023-05-10T07:44:11;4.85;;;3.20;;
78989;SDS011;68390;52.130;21.218;2023-05-10T07:46:36;5.68;;;2.70;;
78989;SDS011;68390;52.130;21.218;2023-05-10T07:49:02;5.45;;;2.58;;
78989;SDS011;68390;52.130;21.218;2023-05-10T07:51:28;4.97;;;2.45;;
78989;SDS011;68390;52.130;21.218;2023-05-10T07:53:53;5.57;;;2.58;;
78989;SDS011;68390;52.130;21.218;2023-05-10T07:56:20;5.68;;;2.78;;
78989;SDS011;68390;52.130;21.218;2023-05-10T07:58:48;3.72;;;3.00;;
78989;SDS011;68390;52.130;21.218;2023-05-10T08:01:14;5.05;;;2.70;;
78989;SDS011;68390;52.130;21.218;2023-05-10T08:03:39;4.50;;;2.80;;
78989;SDS011;68390;52.130;21.218;2023-05-10T08:06:05;5.40;;;2.60;;
78989;SDS011;68390;52.130;21.218;2023-05-10T08:08:30;4.32;;;2.80;;
78989;SDS011;68390;52.130;21.218;2023-05-10T08:10:56;7.53;;;2.83;;
78989;SDS011;68390;52.130;21.218;2023-05-10T08:13:21;3.67;;;2.60;;
78989;SDS011;68390;52.130;21.218;2023-05-10T08:15:47;5.28;;;2.80;;
78989;SDS011;68390;52.130;21.218;2023-05-10T08:18:12;6.13;;;2.80;;
78989;SDS011;68390;52.130;21.218;2023-05-10T08:20:38;3.95;;;2.60;;
78989;SDS011;68390;52.130;21.218;2023-05-10T08:23:03;5.90;;;2.60;;
78989;SDS011;68390;52.130;21.218;2023-05-10T08:25:29;5.25;;;2.80;;
78989;SDS011;68390;52.130;21.218;2023-05-10T08:27:54;5.40;;;2.75;;
78989;SDS011;68390;52.130;21.218;2023-05-10T08:30:20;8.00;;;3.15;;
78989;SDS011;68390;52.130;21.218;2023-05-10T08:32:46;5.10;;;2.80;;
78989;SDS011;68390;52.130;21.218;2023-05-10T08:35:11;7.72;;;2.60;;
78989;SDS011;68390;52.130;21.218;2023-05-10T08:37:36;7.15;;;2.80;;
78989;SDS011;68390;52.130;21.218;2023-05-10T08:40:02;5.65;;;2.70;;
78989;SDS011;68390;52.130;21.218;2023-05-10T08:42:28;5.13;;;2.78;;
78989;SDS011;68390;52.130;21.218;2023-05-10T08:44:59;5.30;;;2.53;;
78989;SDS011;68390;52.130;21.218;2023-05-10T08:47:26;4.95;;;2.80;;
78989;SDS011;68390;52.130;21.218;2023-05-10T08:49:52;7.60;;;2.72;;
78989;SDS011;68390;52.130;21.218;2023-05-10T08:52:19;7.75;;;2.75;;
78989;SDS011;68390;52.130;21.218;2023-05-10T08:54:47;6.43;;;2.78;;
78989;SDS011;68390;52.130;21.218;2023-05-10T08:57:12;4.70;;;2.90;;
78989;SDS011;68390;52.130;21.218;2023-05-10T08:59:38;5.38;;;3.17;;
78989;SDS011;68390;52.130;21.218;2023-05-10T09:02:04;6.57;;;2.80;;
78989;SDS011;68390;52.130;21.218;2023-05-10T09:04:31;6.68;;;2.70;;
78989;SDS011;68390;52.130;21.218;2023-05-10T09:06:57;4.80;;;2.90;;
78989;SDS011;68390;52.130;21.218;2023-05-10T09:09:23;4.32;;;3.20;;
78989;SDS011;68390;52.130;21.218;2023-05-10T09:11:50;10.45;;;2.72;;
78989;SDS011;68390;52.130;21.218;2023-05-10T09:14:16;7.35;;;2.70;;
78989;SDS011;68390;52.130;21.218;2023-05-10T09:16:43;8.60;;;3.58;;
78989;SDS011;68390;52.130;21.218;2023-05-10T09:19:08;8.05;;;3.13;;
78989;SDS011;68390;52.130;21.218;2023-05-10T09:21:35;6.00;;;2.90;;
78989;SDS011;68390;52.130;21.218;2023-05-10T09:24:05;6.63;;;2.72;;
78989;SDS011;68390;52.130;21.218;2023-05-10T09:26:31;8.40;;;2.92;;
78989;SDS011;68390;52.130;21.218;2023-05-10T09:28:58;4.30;;;2.83;;
78989;SDS011;68390;52.130;21.218;2023-05-10T09:31:24;4.50;;;2.90;;
78989;SDS011;68390;52.130;21.218;2023-05-10T09:34:10;4.68;;;2.78;;
78989;SDS011;68390;52.130;21.218;2023-05-10T09:36:35;6.78;;;2.72;;
78989;SDS011;68390;52.130;21.218;2023-05-10T09:39:00;6.40;;;2.80;;
78989;SDS011;68390;52.130;21.218;2023-05-10T09:41:27;5.93;;;2.80;;
78989;SDS011;68390;52.130;21.218;2023-05-10T09:43:55;4.82;;;3.17;;
78989;SDS011;68390;52.130;21.218;2023-05-10T09:46:21;4.93;;;2.90;;
78989;SDS011;68390;52.130;21.218;2023-05-10T09:48:47;7.72;;;3.00;;
78989;SDS011;68390;52.130;21.218;2023-05-10T09:53:45;3.67;;;2.90;;
78989;SDS011;68390;52.130;21.218;2023-05-10T09:56:11;8.95;;;4.65;;
78989;SDS011;68390;52.130;21.218;2023-05-10T09:58:37;4.95;;;2.63;;
78989;SDS011;68390;52.130;21.218;2023-05-10T10:01:03;4.55;;;2.67;;
78989;SDS011;68390;52.130;21.218;2023-05-10T10:03:28;4.50;;;2.80;;
78989;SDS011;68390;52.130;21.218;2023-05-10T10:05:55;8.35;;;2.60;;
78989;SDS011;68390;52.130;21.218;2023-05-10T10:08:21;7.13;;;2.83;;
78989;SDS011;68390;52.130;21.218;2023-05-10T10:10:46;6.25;;;2.78;;
78989;SDS011;68390;52.130;21.218;2023-05-10T10:13:12;5.60;;;2.75;;
78989;SDS011;68390;52.130;21.218;2023-05-10T10:15:38;4.82;;;2.78;;
78989;SDS011;68390;52.130;21.218;2023-05-10T10:18:03;6.03;;;2.72;;
78989;SDS011;68390;52.130;21.218;2023-05-10T10:20:30;5.78;;;2.85;;
78989;SDS011;68390;52.130;21.218;2023-05-10T10:22:56;4.72;;;2.80;;
78989;SDS011;68390;52.130;21.218;2023-05-10T10:25:21;4.35;;;2.80;;
78989;SDS011;68390;52.130;21.218;2023-05-10T10:30:35;4.82;;;2.70;;
78989;SDS011;68390;52.130;21.218;2023-05-10T10:36:09;5.60;;;3.03;;
78989;SDS011;68390;52.130;21.218;2023-05-10T10:41:10;5.88;;;3.08;;
78989;SDS011;68390;52.130;21.218;2023-05-10T10:43:37;7.78;;;2.72;;
78989;SDS011;68390;52.130;21.218;2023-05-10T10:46:15;4.80;;;2.75;;
78989;SDS011;68390;52.130;21.218;2023-05-10T10:49:15;8.38;;;2.78;;
78989;SDS011;68390;52.130;21.218;2023-05-10T10:51:38;6.75;;;2.50;;
78989;SDS011;68390;52.130;21.218;2023-05-10T10:54:10;5.45;;;2.92;;
78989;SDS011;68390;52.130;21.218;2023-05-10T10:56:36;8.20;;;2.83;;
78989;SDS011;68390;52.130;21.218;2023-05-10T10:59:01;4.40;;;2.72;;
78989;SDS011;68390;52.130;21.218;2023-05-10T11:01:27;5.40;;;2.50;;
78989;SDS011;68390;52.130;21.218;2023-05-10T11:06:29;5.43;;;2.90;;
78989;SDS011;68390;52.130;21.218;2023-05-10T11:08:56;11.38;;;2.80;;
78989;SDS011;68390;52.130;21.218;2023-05-10T11:11:22;6.47;;;2.95;;
78989;SDS011;68390;52.130;21.218;2023-05-10T11:13:48;5.15;;;2.60;;
78989;SDS011;68390;52.130;21.218;2023-05-10T11:21:29;6.50;;;2.80;;
78989;SDS011;68390;52.130;21.218;2023-05-10T11:23:58;4.45;;;2.40;;
78989;SDS011;68390;52.130;21.218;2023-05-10T11:26:25;6.93;;;2.42;;
78989;SDS011;68390;52.130;21.218;2023-05-10T11:28:55;8.52;;;2.60;;
78989;SDS011;68390;52.130;21.218;2023-05-10T11:31:21;6.63;;;2.85;;
78989;SDS011;68390;52.130;21.218;2023-05-10T11:33:51;7.50;;;2.95;;
78989;SDS011;68390;52.130;21.218;2023-05-10T11:36:23;7.13;;;3.30;;
78989;SDS011;68390;52.130;21.218;2023-05-10T11:38:53;7.53;;;2.70;;
78989;SDS011;68390;52.130;21.218;2023-05-10T11:41:19;5.88;;;3.00;;
78989;SDS011;68390;52.130;21.218;2023-05-10T11:43:51;6.30;;;2.85;;
78989;SDS011;68390;52.130;21.218;2023-05-10T11:46:20;6.82;;;2.67;;
78989;SDS011;68390;52.130;21.218;2023-05-10T11:48:47;5.03;;;2.72;;
78989;SDS011;68390;52.130;21.218;2023-05-10T11:51:19;4.25;;;2.67;;
78989;SDS011;68390;52.130;21.218;2023-05-10T11:53:46;12.52;;;3.08;;
78989;SDS011;68390;52.130;21.218;2023-05-10T11:56:12;6.03;;;2.55;;
78989;SDS011;68390;52.130;21.218;2023-05-10T11:58:38;8.85;;;2.97;;
78989;SDS011;68390;52.130;21.218;2023-05-10T12:01:05;5.55;;;3.10;;
78989;SDS011;68390;52.130;21.218;2023-05-10T12:03:32;5.18;;;2.72;;
78989;SDS011;68390;52.130;21.218;2023-05-10T12:05:58;6.20;;;3.08;;
78989;SDS011;68390;52.130;21.218;2023-05-10T12:08:26;3.40;;;2.55;;
78989;SDS011;68390;52.130;21.218;2023-05-10T12:10:53;4.55;;;2.58;;
78989;SDS011;68390;52.130;21.218;2023-05-10T12:13:28;7.70;;;2.70;;
78989;SDS011;68390;52.130;21.218;2023-05-10T12:15:54;6.55;;;2.60;;
78989;SDS011;68390;52.130;21.218;2023-05-10T12:18:23;6.20;;;2.70;;
78989;SDS011;68390;52.130;21.218;2023-05-10T12:20:52;4.93;;;2.72;;
78989;SDS011;68390;52.130;21.218;2023-05-10T12:23:21;7.32;;;2.97;;
78989;SDS011;68390;52.130;21.218;2023-05-10T12:25:46;8.15;;;2.72;;
78989;SDS011;68390;52.130;21.218;2023-05-10T12:28:12;4.97;;;2.60;;
78989;SDS011;68390;52.130;21.218;2023-05-10T12:30:38;7.00;;;3.00;;
78989;SDS011;68390;52.130;21.218;2023-05-10T12:35:33;4.05;;;2.67;;
78989;SDS011;68390;52.130;21.218;2023-05-10T12:41:17;8.40;;;2.85;;
78989;SDS011;68390;52.130;21.218;2023-05-10T12:43:42;4.40;;;2.90;;
78989;SDS011;68390;52.130;21.218;2023-05-10T12:46:08;8.27;;;2.88;;
78989;SDS011;68390;52.130;21.218;2023-05-10T12:48:40;5.07;;;2.67;;
78989;SDS011;68390;52.130;21.218;2023-05-10T12:51:06;5.65;;;2.90;;
78989;SDS011;68390;52.130;21.218;2023-05-10T12:53:42;9.15;;;3.40;;
78989;SDS011;68390;52.130;21.218;2023-05-10T12:56:07;5.85;;;3.13;;
78989;SDS011;68390;52.130;21.218;2023-05-10T12:58:33;5.10;;;3.05;;
78989;SDS011;68390;52.130;21.218;2023-05-10T13:00:59;6.20;;;2.80;;
78989;SDS011;68390;52.130;21.218;2023-05-10T13:03:25;9.93;;;3.08;;
78989;SDS011;68390;52.130;21.218;2023-05-10T13:05:51;8.55;;;3.00;;
78989;SDS011;68390;52.130;21.218;2023-05-10T13:08:17;8.35;;;2.97;;
78989;SDS011;68390;52.130;21.218;2023-05-10T13:10:42;4.47;;;2.83;;
78989;SDS011;68390;52.130;21.218;2023-05-10T13:13:07;17.60;;;3.65;;
78989;SDS011;68390;52.130;21.218;2023-05-10T13:15:33;4.43;;;2.80;;
78989;SDS011;68390;52.130;21.218;2023-05-10T13:17:59;6.20;;;3.15;;
78989;SDS011;68390;52.130;21.218;2023-05-10T13:20:25;11.13;;;2.85;;
78989;SDS011;68390;52.130;21.218;2023-05-10T13:22:50;11.05;;;3.17;;
78989;SDS011;68390;52.130;21.218;2023-05-10T13:25:16;4.03;;;2.60;;
78989;SDS011;68390;52.130;21.218;2023-05-10T13:27:42;6.30;;;2.65;;
78989;SDS011;68390;52.130;21.218;2023-05-10T13:30:08;4.75;;;2.90;;
78989;SDS011;68390;52.130;21.218;2023-05-10T13:32:34;5.03;;;2.75;;
78989;SDS011;68390;52.130;21.218;2023-05-10T13:35:00;6.80;;;2.80;;
78989;SDS011;68390;52.130;21.218;2023-05-10T13:37:26;5.30;;;2.80;;
78989;SDS011;68390;52.130;21.218;2023-05-10T13:39:51;4.70;;;2.40;;
78989;SDS011;68390;52.130;21.218;2023-05-10T13:42:17;5.45;;;2.70;;
78989;SDS011;68390;52.130;21.218;2023-05-10T13:44:43;4.47;;;2.50;;
78989;SDS011;68390;52.130;21.218;2023-05-10T13:47:08;4.53;;;2.55;;
78989;SDS011;68390;52.130;21.218;2023-05-10T13:49:34;6.20;;;3.10;;
78989;SDS011;68390;52.130;21.218;2023-05-10T13:52:00;12.30;;;3.50;;
78989;SDS011;68390;52.130;21.218;2023-05-10T13:54:35;14.30;;;3.47;;
78989;SDS011;68390;52.130;21.218;2023-05-10T13:57:03;6.55;;;3.20;;
78989;SDS011;68390;52.130;21.218;2023-05-10T13:59:29;9.10;;;2.90;;
78989;SDS011;68390;52.130;21.218;2023-05-10T14:01:56;3.30;;;2.55;;
78989;SDS011;68390;52.130;21.218;2023-05-10T14:04:22;5.97;;;2.72;;
78989;SDS011;68390;52.130;21.218;2023-05-10T14:06:48;5.80;;;2.60;;
78989;SDS011;68390;52.130;21.218;2023-05-10T14:09:13;8.75;;;2.75;;
78989;SDS011;68390;52.130;21.218;2023-05-10T14:11:39;7.47;;;2.60;;
78989;SDS011;68390;52.130;21.218;2023-05-10T14:14:08;6.18;;;3.28;;
78989;SDS011;68390;52.130;21.218;2023-05-10T14:16:36;5.53;;;2.70;;
78989;SDS011;68390;52.130;21.218;2023-05-10T14:19:01;5.30;;;2.53;;
78989;SDS011;68390;52.130;21.218;2023-05-10T14:21:27;5.32;;;2.88;;
78989;SDS011;68390;52.130;21.218;2023-05-10T14:23:56;5.18;;;3.17;;
78989;SDS011;68390;52.130;21.218;2023-05-10T14:26:21;4.45;;;2.88;;
78989;SDS011;68390;52.130;21.218;2023-05-10T14:28:47;6.35;;;3.20;;
78989;SDS011;68390;52.130;21.218;2023-05-10T14:31:12;5.28;;;2.60;;
78989;SDS011;68390;52.130;21.218;2023-05-10T14:33:39;5.93;;;2.67;;
78989;SDS011;68390;52.130;21.218;2023-05-10T14:36:05;4.55;;;2.80;;
78989;SDS011;68390;52.130;21.218;2023-05-10T14:38:31;8.80;;;3.00;;
78989;SDS011;68390;52.130;21.218;2023-05-10T14:40:56;6.15;;;2.72;;
78989;SDS011;68390;52.130;21.218;2023-05-10T14:43:22;5.15;;;2.60;;
78989;SDS011;68390;52.130;21.218;2023-05-10T14:45:48;4.97;;;2.50;;
78989;SDS011;68390;52.130;21.218;2023-05-10T14:48:13;7.63;;;3.03;;
78989;SDS011;68390;52.130;21.218;2023-05-10T14:50:42;9.13;;;2.60;;
78989;SDS011;68390;52.130;21.218;2023-05-10T14:53:08;6.32;;;2.60;;
78989;SDS011;68390;52.130;21.218;2023-05-10T14:55:33;5.72;;;2.65;;
78989;SDS011;68390;52.130;21.218;2023-05-10T14:58:00;10.35;;;3.33;;
78989;SDS011;68390;52.130;21.218;2023-05-10T15:00:25;5.88;;;2.97;;
78989;SDS011;68390;52.130;21.218;2023-05-10T15:02:50;6.95;;;2.55;;
78989;SDS011;68390;52.130;21.218;2023-05-10T15:05:16;5.38;;;2.80;;
78989;SDS011;68390;52.130;21.218;2023-05-10T15:07:42;4.85;;;2.50;;
78989;SDS011;68390;52.130;21.218;2023-05-10T15:10:09;4.13;;;2.97;;
78989;SDS011;68390;52.130;21.218;2023-05-10T15:12:34;7.40;;;2.53;;
78989;SDS011;68390;52.130;21.218;2023-05-10T15:14:59;4.88;;;2.40;;